sensor_id;sensor_type;location;lat;lon;timestamp;pressure;altitude;pressure_sealevel;temperature;humidity
55149;BME280;49539;48.160;11.530;2022-10-17T00:01:05;96449.94;;;12.67;100.00
55149;BME280;49539;48.160;11.530;2022-10-17T00:03:30;96446.88;;;12.65;100.00
55149;BME280;49539;48.160;11.530;2022-10-17T00:05:56;96447.38;;;12.60;100.00
55149;BME280;49539;48.160;11.530;2022-10-17T00:08:21;96451.38;;;12.55;100.00
55149;BME280;49539;48.160;11.530;2022-10-17T00:10:57;96452.19;;;12.52;100.00
55149;BME280;49539;48.160;11.530;2022-10-17T00:13:22;96455.34;;;12.51;100.00
55149;BME280;49539;48.160;11.530;2022-10-17T00:15:48;96461.66;;;12.48;100.00
55149;BME280;49539;48.160;11.530;2022-10-17T00:18:13;96456.19;;;12.48;100.00
55149;BME280;49539;48.160;11.530;2022-10-17T00:20:41;96457.78;;;12.45;100.00
55149;BME280;49539;48.160;11.530;2022-10-17T00:23:06;96456.75;;;12.39;100.00
55149;BME280;49539;48.160;11.530;2022-10-17T00:25:32;96461.91;;;12.33;100.00
55149;BME280;49539;48.160;11.530;2022-10-17T00:27:57;96450.28;;;12.29;100.00
55149;BME280;49539;48.160;11.530;2022-10-17T00:30:22;96460.75;;;12.34;100.00
55149;BME280;49539;48.160;11.530;2022-10-17T00:32:47;96460.88;;;12.27;100.00
55149;BME280;49539;48.160;11.530;2022-10-17T00:35:13;96456.59;;;12.26;100.00
55149;BME280;49539;48.160;11.530;2022-10-17T00:37:38;96456.66;;;12.23;100.00
55149;BME280;49539;48.160;11.530;2022-10-17T00:40:05;96461.09;;;12.36;100.00
55149;BME280;49539;48.160;11.530;2022-10-17T00:42:30;96465.34;;;12.37;100.00
55149;BME280;49539;48.160;11.530;2022-10-17T00:44:57;96465.25;;;12.21;100.00
55149;BME280;49539;48.160;11.530;2022-10-17T00:47:23;96464.69;;;12.10;100.00
55149;BME280;49539;48.160;11.530;2022-10-17T00:49:49;96470.06;;;12.13;100.00
55149;BME280;49539;48.160;11.530;2022-10-17T00:52:17;96467.88;;;12.05;100.00
55149;BME280;49539;48.160;11.530;2022-10-17T00:54:45;96468.72;;;12.02;100.00
55149;BME280;49539;48.160;11.530;2022-10-17T00:57:13;96465.75;;;11.92;100.00
55149;BME280;49539;48.160;11.530;2022-10-17T00:59:39;96477.13;;;11.87;100.00
55149;BME280;49539;48.160;11.530;2022-10-17T01:02:08;96470.81;;;11.94;100.00
55149;BME280;49539;48.160;11.530;2022-10-17T01:04:35;96467.16;;;12.01;100.00
55149;BME280;49539;48.160;11.530;2022-10-17T01:07:01;96470.38;;;11.96;100.00
55149;BME280;49539;48.160;11.530;2022-10-17T01:09:26;96471.19;;;11.92;100.00
55149;BME280;49539;48.160;11.530;2022-10-17T01:14:29;96479.53;;;11.85;100.00
55149;BME280;49539;48.160;11.530;2022-10-17T01:16:59;96481.13;;;11.83;100.00
55149;BME280;49539;48.160;11.530;2022-10-17T01:22:06;96474.06;;;11.85;100.00
55149;BME280;49539;48.160;11.530;2022-10-17T01:34:58;96469.72;;;11.88;100.00
55149;BME280;49539;48.160;11.530;2022-10-17T01:37:28;96459.66;;;11.81;100.00
55149;BME280;49539;48.160;11.530;2022-10-17T01:42:41;96468.94;;;11.87;100.00
55149;BME280;49539;48.160;11.530;2022-10-17T01:47:33;96468.78;;;11.71;100.00
55149;BME280;49539;48.160;11.530;2022-10-17T01:49:59;96464.88;;;11.72;100.00
55149;BME280;49539;48.160;11.530;2022-10-17T01:52:28;96464.94;;;11.68;100.00
55149;BME280;49539;48.160;11.530;2022-10-17T01:54:57;96470.84;;;11.63;100.00
55149;BME280;49539;48.160;11.530;2022-10-17T01:57:40;96470.47;;;11.65;100.00
55149;BME280;49539;48.160;11.530;2022-10-17T02:00:10;96472.81;;;11.63;100.00
55149;BME280;49539;48.160;11.530;2022-10-17T02:02:38;96465.81;;;11.62;100.00
55149;BME280;49539;48.160;11.530;2022-10-17T02:05:04;96468.16;;;11.60;100.00
55149;BME280;49539;48.160;11.530;2022-10-17T02:07:29;96468.66;;;11.55;100.00
55149;BME280;49539;48.160;11.530;2022-10-17T02:09:54;96464.56;;;11.39;100.00
55149;BME280;49539;48.160;11.530;2022-10-17T02:12:26;96469.59;;;11.45;100.00
55149;BME280;49539;48.160;11.530;2022-10-17T02:15:41;96464.84;;;11.49;100.00
55149;BME280;49539;48.160;11.530;2022-10-17T02:20:48;96458.31;;;11.42;100.00
55149;BME280;49539;48.160;11.530;2022-10-17T02:23:17;96453.28;;;11.41;100.00
55149;BME280;49539;48.160;11.530;2022-10-17T02:31:02;96460.06;;;11.29;100.00
55149;BME280;49539;48.160;11.530;2022-10-17T02:33:30;96462.78;;;11.29;100.00
55149;BME280;49539;48.160;11.530;2022-10-17T02:35:58;96458.81;;;11.34;100.00
55149;BME280;49539;48.160;11.530;2022-10-17T02:38:24;96454.94;;;11.31;100.00
55149;BME280;49539;48.160;11.530;2022-10-17T02:40:51;96461.97;;;11.32;100.00
55149;BME280;49539;48.160;11.530;2022-10-17T02:43:17;96454.13;;;11.34;100.00
55149;BME280;49539;48.160;11.530;2022-10-17T02:45:43;96461.13;;;11.35;100.00
55149;BME280;49539;48.160;11.530;2022-10-17T02:48:09;96458.81;;;11.34;100.00
55149;BME280;49539;48.160;11.530;2022-10-17T02:50:39;96454.59;;;11.29;100.00
55149;BME280;49539;48.160;11.530;2022-10-17T02:53:14;96456.56;;;11.29;100.00
55149;BME280;49539;48.160;11.530;2022-10-17T02:55:43;96467.88;;;11.27;100.00
55149;BME280;49539;48.160;11.530;2022-10-17T02:58:18;96461.25;;;11.28;100.00
55149;BME280;49539;48.160;11.530;2022-10-17T03:00:44;96461.69;;;11.23;100.00
55149;BME280;49539;48.160;11.530;2022-10-17T03:03:19;96469.09;;;11.23;100.00
55149;BME280;49539;48.160;11.530;2022-10-17T03:05:45;96466.75;;;11.25;100.00
55149;BME280;49539;48.160;11.530;2022-10-17T03:08:11;96471.16;;;11.15;100.00
55149;BME280;49539;48.160;11.530;2022-10-17T03:10:36;96473.88;;;11.15;100.00
55149;BME280;49539;48.160;11.530;2022-10-17T03:13:01;96470.00;;;11.16;100.00
55149;BME280;49539;48.160;11.530;2022-10-17T03:15:26;96467.63;;;11.18;100.00
55149;BME280;49539;48.160;11.530;2022-10-17T03:17:52;96463.78;;;11.15;100.00
55149;BME280;49539;48.160;11.530;2022-10-17T03:20:17;96465.41;;;11.09;100.00
55149;BME280;49539;48.160;11.530;2022-10-17T03:22:43;96464.97;;;11.11;100.00
55149;BME280;49539;48.160;11.530;2022-10-17T03:25:08;96465.84;;;11.04;100.00
55149;BME280;49539;48.160;11.530;2022-10-17T03:27:33;96467.66;;;11.14;100.00
55149;BME280;49539;48.160;11.530;2022-10-17T03:29:58;96472.84;;;11.05;100.00
55149;BME280;49539;48.160;11.530;2022-10-17T03:32:24;96474.50;;;10.99;100.00
55149;BME280;49539;48.160;11.530;2022-10-17T03:34:50;96476.84;;;10.97;100.00
55149;BME280;49539;48.160;11.530;2022-10-17T03:37:15;96482.25;;;11.01;100.00
55149;BME280;49539;48.160;11.530;2022-10-17T03:39:40;96489.25;;;11.02;100.00
55149;BME280;49539;48.160;11.530;2022-10-17T03:42:06;96489.34;;;10.95;100.00
55149;BME280;49539;48.160;11.530;2022-10-17T03:44:31;96480.88;;;10.85;100.00
55149;BME280;49539;48.160;11.530;2022-10-17T03:46:56;96483.28;;;10.80;100.00
55149;BME280;49539;48.160;11.530;2022-10-17T03:49:22;96484.78;;;10.84;100.00
55149;BME280;49539;48.160;11.530;2022-10-17T03:51:47;96486.47;;;10.75;100.00
55149;BME280;49539;48.160;11.530;2022-10-17T03:54:12;96479.09;;;10.72;100.00
55149;BME280;49539;48.160;11.530;2022-10-17T03:56:38;96489.91;;;10.82;100.00
55149;BME280;49539;48.160;11.530;2022-10-17T03:59:03;96489.25;;;10.71;100.00
55149;BME280;49539;48.160;11.530;2022-10-17T04:01:31;96487.78;;;10.63;100.00
55149;BME280;49539;48.160;11.530;2022-10-17T04:03:56;96480.00;;;10.61;100.00
55149;BME280;49539;48.160;11.530;2022-10-17T04:06:22;96492.84;;;10.61;100.00
55149;BME280;49539;48.160;11.530;2022-10-17T04:08:47;96482.34;;;10.59;100.00
55149;BME280;49539;48.160;11.530;2022-10-17T04:11:13;96487.09;;;10.52;100.00
55149;BME280;49539;48.160;11.530;2022-10-17T04:13:39;96490.56;;;10.56;100.00
55149;BME280;49539;48.160;11.530;2022-10-17T04:16:06;96494.94;;;10.50;100.00
55149;BME280;49539;48.160;11.530;2022-10-17T04:18:31;96492.97;;;10.50;100.00
55149;BME280;49539;48.160;11.530;2022-10-17T04:20:57;96496.16;;;10.45;100.00
55149;BME280;49539;48.160;11.530;2022-10-17T04:23:22;96493.72;;;10.54;100.00
55149;BME280;49539;48.160;11.530;2022-10-17T04:25:48;96487.97;;;10.45;100.00
55149;BME280;49539;48.160;11.530;2022-10-17T04:28:14;96493.81;;;10.43;100.00
55149;BME280;49539;48.160;11.530;2022-10-17T04:30:39;96491.09;;;10.43;100.00
55149;BME280;49539;48.160;11.530;2022-10-17T04:33:04;96497.31;;;10.44;100.00
55149;BME280;49539;48.160;11.530;2022-10-17T04:35:30;96501.59;;;10.45;100.00
55149;BME280;49539;48.160;11.530;2022-10-17T04:37:55;96502.00;;;10.40;100.00
55149;BME280;49539;48.160;11.530;2022-10-17T04:40:20;96506.75;;;10.32;100.00
55149;BME280;49539;48.160;11.530;2022-10-17T04:42:46;96509.09;;;10.34;100.00
55149;BME280;49539;48.160;11.530;2022-10-17T04:45:11;96507.13;;;10.34;100.00
55149;BME280;49539;48.160;11.530;2022-10-17T04:47:36;96506.69;;;10.39;100.00
55149;BME280;49539;48.160;11.530;2022-10-17T04:50:02;96503.69;;;10.30;100.00
55149;BME280;49539;48.160;11.530;2022-10-17T04:52:27;96506.00;;;10.28;100.00
55149;BME280;49539;48.160;11.530;2022-10-17T04:54:53;96515.28;;;10.38;100.00
55149;BME280;49539;48.160;11.530;2022-10-17T04:57:18;96513.31;;;10.38;100.00
55149;BME280;49539;48.160;11.530;2022-10-17T04:59:44;96514.13;;;10.35;100.00
55149;BME280;49539;48.160;11.530;2022-10-17T05:02:09;96511.50;;;10.25;100.00
55149;BME280;49539;48.160;11.530;2022-10-17T05:04:34;96518.50;;;10.26;100.00
55149;BME280;49539;48.160;11.530;2022-10-17T05:07:00;96518.97;;;10.13;100.00
55149;BME280;49539;48.160;11.530;2022-10-17T05:09:25;96523.56;;;10.20;100.00
55149;BME280;49539;48.160;11.530;2022-10-17T05:11:51;96516.59;;;10.15;100.00
55149;BME280;49539;48.160;11.530;2022-10-17T05:14:16;96518.09;;;10.24;100.00
55149;BME280;49539;48.160;11.530;2022-10-17T05:16:41;96518.53;;;10.18;100.00
55149;BME280;49539;48.160;11.530;2022-10-17T05:19:07;96528.25;;;10.16;100.00
55149;BME280;49539;48.160;11.530;2022-10-17T05:21:32;96529.06;;;10.16;100.00
55149;BME280;49539;48.160;11.530;2022-10-17T05:23:57;96526.41;;;10.09;100.00
55149;BME280;49539;48.160;11.530;2022-10-17T05:26:23;96519.75;;;10.10;100.00
55149;BME280;49539;48.160;11.530;2022-10-17T05:28:49;96526.78;;;10.08;100.00
55149;BME280;49539;48.160;11.530;2022-10-17T05:31:16;96529.91;;;10.06;100.00
55149;BME280;49539;48.160;11.530;2022-10-17T05:33:41;96537.34;;;9.99;100.00
55149;BME280;49539;48.160;11.530;2022-10-17T05:36:07;96545.84;;;10.08;100.00
55149;BME280;49539;48.160;11.530;2022-10-17T05:38:32;96541.13;;;10.12;100.00
55149;BME280;49539;48.160;11.530;2022-10-17T05:40:58;96547.03;;;10.03;100.00
55149;BME280;49539;48.160;11.530;2022-10-17T05:43:24;96545.09;;;10.04;100.00
55149;BME280;49539;48.160;11.530;2022-10-17T05:45:50;96553.66;;;10.02;100.00
55149;BME280;49539;48.160;11.530;2022-10-17T05:48:15;96558.31;;;10.05;100.00
55149;BME280;49539;48.160;11.530;2022-10-17T05:50:41;96565.34;;;9.99;100.00
55149;BME280;49539;48.160;11.530;2022-10-17T05:53:06;96563.34;;;10.07;100.00
55149;BME280;49539;48.160;11.530;2022-10-17T05:55:32;96558.31;;;10.05;100.00
55149;BME280;49539;48.160;11.530;2022-10-17T05:57:58;96563.78;;;10.02;100.00
55149;BME280;49539;48.160;11.530;2022-10-17T06:00:23;96562.97;;;10.05;100.00
55149;BME280;49539;48.160;11.530;2022-10-17T06:02:49;96575.88;;;9.97;100.00
55149;BME280;49539;48.160;11.530;2022-10-17T06:05:14;96570.03;;;9.95;100.00
55149;BME280;49539;48.160;11.530;2022-10-17T06:07:40;96581.66;;;9.99;100.00
55149;BME280;49539;48.160;11.530;2022-10-17T06:10:05;96583.66;;;9.95;100.00
55149;BME280;49539;48.160;11.530;2022-10-17T06:12:31;96576.25;;;9.95;100.00
55149;BME280;49539;48.160;11.530;2022-10-17T06:14:56;96579.25;;;10.12;100.00
55149;BME280;49539;48.160;11.530;2022-10-17T06:17:21;96582.81;;;10.05;100.00
55149;BME280;49539;48.160;11.530;2022-10-17T06:19:47;96576.16;;;10.10;100.00
55149;BME280;49539;48.160;11.530;2022-10-17T06:22:12;96574.50;;;10.23;100.00
55149;BME280;49539;48.160;11.530;2022-10-17T06:24:37;96575.22;;;10.34;100.00
55149;BME280;49539;48.160;11.530;2022-10-17T06:27:03;96576.03;;;10.28;100.00
55149;BME280;49539;48.160;11.530;2022-10-17T06:29:28;96582.66;;;10.27;100.00
55149;BME280;49539;48.160;11.530;2022-10-17T06:31:53;96576.31;;;10.40;100.00
55149;BME280;49539;48.160;11.530;2022-10-17T06:34:19;96584.53;;;10.37;100.00
55149;BME280;49539;48.160;11.530;2022-10-17T06:36:44;96577.88;;;10.41;100.00
55149;BME280;49539;48.160;11.530;2022-10-17T06:39:09;96579.78;;;10.44;100.00
55149;BME280;49539;48.160;11.530;2022-10-17T06:41:35;96589.13;;;10.43;100.00
55149;BME280;49539;48.160;11.530;2022-10-17T06:44:00;96589.13;;;10.43;100.00
55149;BME280;49539;48.160;11.530;2022-10-17T06:46:25;96591.34;;;10.59;100.00
55149;BME280;49539;48.160;11.530;2022-10-17T06:48:53;96587.84;;;10.59;100.00
55149;BME280;49539;48.160;11.530;2022-10-17T06:51:19;96599.13;;;10.57;100.00
55149;BME280;49539;48.160;11.530;2022-10-17T06:53:44;96599.91;;;10.58;100.00
55149;BME280;49539;48.160;11.530;2022-10-17T06:56:09;96604.88;;;10.70;100.00
55149;BME280;49539;48.160;11.530;2022-10-17T06:58:36;96604.00;;;10.77;100.00
55149;BME280;49539;48.160;11.530;2022-10-17T07:01:04;96601.19;;;10.87;100.00
55149;BME280;49539;48.160;11.530;2022-10-17T07:03:30;96607.00;;;10.89;100.00
55149;BME280;49539;48.160;11.530;2022-10-17T07:05:55;96601.00;;;11.02;100.00
55149;BME280;49539;48.160;11.530;2022-10-17T07:08:21;96614.63;;;11.05;100.00
55149;BME280;49539;48.160;11.530;2022-10-17T07:10:46;96621.47;;;11.21;100.00
55149;BME280;49539;48.160;11.530;2022-10-17T07:13:12;96616.13;;;11.44;100.00
55149;BME280;49539;48.160;11.530;2022-10-17T07:15:38;96613.97;;;11.59;100.00
55149;BME280;49539;48.160;11.530;2022-10-17T07:18:04;96619.25;;;11.73;100.00
55149;BME280;49539;48.160;11.530;2022-10-17T07:20:29;96624.22;;;11.82;100.00
55149;BME280;49539;48.160;11.530;2022-10-17T07:22:55;96622.50;;;11.95;100.00
55149;BME280;49539;48.160;11.530;2022-10-17T07:25:20;96618.34;;;12.14;100.00
55149;BME280;49539;48.160;11.530;2022-10-17T07:27:47;96622.50;;;12.22;100.00
55149;BME280;49539;48.160;11.530;2022-10-17T07:30:12;96625.53;;;12.28;100.00
55149;BME280;49539;48.160;11.530;2022-10-17T07:32:37;96627.91;;;12.49;100.00
55149;BME280;49539;48.160;11.530;2022-10-17T07:35:03;96626.19;;;12.59;100.00
55149;BME280;49539;48.160;11.530;2022-10-17T07:37:28;96637.31;;;12.72;100.00
55149;BME280;49539;48.160;11.530;2022-10-17T07:39:53;96634.19;;;12.93;100.00
55149;BME280;49539;48.160;11.530;2022-10-17T07:42:20;96632.31;;;12.90;100.00
55149;BME280;49539;48.160;11.530;2022-10-17T07:44:46;96636.28;;;13.09;100.00
55149;BME280;49539;48.160;11.530;2022-10-17T07:47:11;96633.38;;;13.16;100.00
55149;BME280;49539;48.160;11.530;2022-10-17T07:49:36;96632.84;;;13.25;100.00
55149;BME280;49539;48.160;11.530;2022-10-17T07:52:08;96620.25;;;13.31;100.00
55149;BME280;49539;48.160;11.530;2022-10-17T07:54:33;96622.41;;;13.59;100.00
55149;BME280;49539;48.160;11.530;2022-10-17T07:56:58;96628.84;;;13.69;100.00
55149;BME280;49539;48.160;11.530;2022-10-17T07:59:23;96628.44;;;13.71;100.00
55149;BME280;49539;48.160;11.530;2022-10-17T08:01:49;96622.31;;;13.83;100.00
55149;BME280;49539;48.160;11.530;2022-10-17T08:04:14;96626.91;;;13.86;100.00
55149;BME280;49539;48.160;11.530;2022-10-17T08:06:41;96628.66;;;13.96;100.00
55149;BME280;49539;48.160;11.530;2022-10-17T08:09:07;96629.69;;;14.02;100.00
55149;BME280;49539;48.160;11.530;2022-10-17T08:11:32;96625.09;;;14.15;100.00
55149;BME280;49539;48.160;11.530;2022-10-17T08:13:57;96620.06;;;14.30;100.00
55149;BME280;49539;48.160;11.530;2022-10-17T08:16:23;96620.41;;;14.32;100.00
55149;BME280;49539;48.160;11.530;2022-10-17T08:18:48;96614.44;;;14.54;100.00
55149;BME280;49539;48.160;11.530;2022-10-17T08:21:13;96616.41;;;14.70;100.00
55149;BME280;49539;48.160;11.530;2022-10-17T08:23:39;96613.19;;;14.87;100.00
55149;BME280;49539;48.160;11.530;2022-10-17T08:26:05;96617.78;;;15.07;100.00
55149;BME280;49539;48.160;11.530;2022-10-17T08:28:35;96611.13;;;15.21;100.00
55149;BME280;49539;48.160;11.530;2022-10-17T08:31:04;96615.91;;;15.33;100.00
55149;BME280;49539;48.160;11.530;2022-10-17T08:33:30;96610.81;;;15.60;100.00
55149;BME280;49539;48.160;11.530;2022-10-17T08:35:57;96598.13;;;15.79;100.00
55149;BME280;49539;48.160;11.530;2022-10-17T08:38:23;96591.19;;;15.87;100.00
55149;BME280;49539;48.160;11.530;2022-10-17T08:40:48;96600.44;;;15.94;100.00
55149;BME280;49539;48.160;11.530;2022-10-17T08:45:55;96609.81;;;16.22;100.00
55149;BME280;49539;48.160;11.530;2022-10-17T08:48:25;96606.47;;;16.40;100.00
55149;BME280;49539;48.160;11.530;2022-10-17T08:50:52;96607.59;;;16.42;100.00
55149;BME280;49539;48.160;11.530;2022-10-17T08:55:47;96607.84;;;16.82;100.00
55149;BME280;49539;48.160;11.530;2022-10-17T08:58:15;96603.63;;;16.91;100.00
55149;BME280;49539;48.160;11.530;2022-10-17T09:01:05;96602.88;;;16.90;100.00
55149;BME280;49539;48.160;11.530;2022-10-17T09:03:31;96611.88;;;16.91;100.00
55149;BME280;49539;48.160;11.530;2022-10-17T09:11:55;96599.91;;;17.19;100.00
55149;BME280;49539;48.160;11.530;2022-10-17T09:19:34;96599.06;;;17.31;100.00
55149;BME280;49539;48.160;11.530;2022-10-17T09:22:03;96602.25;;;17.52;100.00
55149;BME280;49539;48.160;11.530;2022-10-17T09:24:37;96601.38;;;17.77;100.00
55149;BME280;49539;48.160;11.530;2022-10-17T09:27:04;96605.25;;;17.89;100.00
55149;BME280;49539;48.160;11.530;2022-10-17T09:29:30;96602.63;;;17.85;100.00
55149;BME280;49539;48.160;11.530;2022-10-17T09:32:00;96612.00;;;17.88;100.00
55149;BME280;49539;48.160;11.530;2022-10-17T09:34:27;96612.25;;;17.80;100.00
55149;BME280;49539;48.160;11.530;2022-10-17T09:36:52;96605.72;;;17.87;100.00
55149;BME280;49539;48.160;11.530;2022-10-17T09:39:18;96605.94;;;18.02;100.00
55149;BME280;49539;48.160;11.530;2022-10-17T09:41:49;96606.28;;;18.13;100.00
55149;BME280;49539;48.160;11.530;2022-10-17T09:44:20;96605.03;;;18.05;100.00
55149;BME280;49539;48.160;11.530;2022-10-17T09:46:50;96601.69;;;18.10;100.00
55149;BME280;49539;48.160;11.530;2022-10-17T09:49:18;96601.16;;;18.33;100.00
55149;BME280;49539;48.160;11.530;2022-10-17T09:51:45;96599.19;;;18.43;100.00
55149;BME280;49539;48.160;11.530;2022-10-17T09:54:55;96602.91;;;18.58;100.00
55149;BME280;49539;48.160;11.530;2022-10-17T09:57:04;96606.03;;;18.70;100.00
55149;BME280;49539;48.160;11.530;2022-10-17T09:59:31;96604.53;;;18.87;100.00
55149;BME280;49539;48.160;11.530;2022-10-17T10:02:07;96610.22;;;19.02;100.00
55149;BME280;49539;48.160;11.530;2022-10-17T10:04:33;96615.13;;;18.89;100.00
55149;BME280;49539;48.160;11.530;2022-10-17T10:07:03;96616.03;;;19.04;100.00
55149;BME280;49539;48.160;11.530;2022-10-17T10:09:32;96612.06;;;19.14;100.00
55149;BME280;49539;48.160;11.530;2022-10-17T10:11:59;96616.81;;;19.14;100.00
55149;BME280;49539;48.160;11.530;2022-10-17T10:16:54;96617.28;;;19.30;100.00
55149;BME280;49539;48.160;11.530;2022-10-17T10:21:53;96611.13;;;19.63;100.00
55149;BME280;49539;48.160;11.530;2022-10-17T10:24:19;96605.88;;;19.83;100.00
55149;BME280;49539;48.160;11.530;2022-10-17T10:26:45;96610.72;;;19.98;100.00
55149;BME280;49539;48.160;11.530;2022-10-17T10:29:21;96605.22;;;19.89;100.00
55149;BME280;49539;48.160;11.530;2022-10-17T10:31:47;96608.84;;;20.13;100.00
55149;BME280;49539;48.160;11.530;2022-10-17T10:36:49;96610.31;;;20.66;100.00
55149;BME280;49539;48.160;11.530;2022-10-17T10:39:35;96601.22;;;20.65;100.00
55149;BME280;49539;48.160;11.530;2022-10-17T10:42:02;96608.53;;;20.77;100.00
55149;BME280;49539;48.160;11.530;2022-10-17T10:44:29;96603.97;;;20.65;100.00
55149;BME280;49539;48.160;11.530;2022-10-17T10:50:08;96609.41;;;21.08;100.00
55149;BME280;49539;48.160;11.530;2022-10-17T10:52:49;96602.88;;;21.35;100.00
55149;BME280;49539;48.160;11.530;2022-10-17T10:57:42;96602.88;;;21.35;100.00
55149;BME280;49539;48.160;11.530;2022-10-17T11:00:11;96611.50;;;21.51;100.00
55149;BME280;49539;48.160;11.530;2022-10-17T11:03:14;96603.50;;;21.98;100.00
55149;BME280;49539;48.160;11.530;2022-10-17T11:08:17;96600.59;;;22.22;100.00
55149;BME280;49539;48.160;11.530;2022-10-17T11:13:33;96595.16;;;22.83;100.00
55149;BME280;49539;48.160;11.530;2022-10-17T11:16:03;96591.22;;;22.90;100.00
55149;BME280;49539;48.160;11.530;2022-10-17T11:18:33;96595.63;;;22.96;100.00
55149;BME280;49539;48.160;11.530;2022-10-17T11:21:02;96585.88;;;23.07;100.00
55149;BME280;49539;48.160;11.530;2022-10-17T11:25:59;96590.09;;;22.82;100.00
55149;BME280;49539;48.160;11.530;2022-10-17T11:28:27;96592.38;;;22.83;100.00
55149;BME280;49539;48.160;11.530;2022-10-17T11:30:57;96582.88;;;22.90;100.00
55149;BME280;49539;48.160;11.530;2022-10-17T11:35:54;96593.50;;;23.32;100.00
55149;BME280;49539;48.160;11.530;2022-10-17T11:40:54;96584.75;;;23.65;100.00
55149;BME280;49539;48.160;11.530;2022-10-17T11:43:28;96582.72;;;23.66;100.00
55149;BME280;49539;48.160;11.530;2022-10-17T11:45:56;96588.31;;;23.97;100.00
55149;BME280;49539;48.160;11.530;2022-10-17T11:48:27;96583.66;;;23.83;100.00
55149;BME280;49539;48.160;11.530;2022-10-17T11:51:06;96585.06;;;23.99;92.14
55149;BME280;49539;48.160;11.530;2022-10-17T11:53:37;96588.34;;;24.35;94.75
55149;BME280;49539;48.160;11.530;2022-10-17T11:56:05;96585.00;;;24.62;94.29
55149;BME280;49539;48.160;11.530;2022-10-17T11:58:35;96581.78;;;24.81;79.43
55149;BME280;49539;48.160;11.530;2022-10-17T12:16:59;96581.34;;;25.70;60.54
55149;BME280;49539;48.160;11.530;2022-10-17T12:19:25;96578.81;;;25.72;54.20
55149;BME280;49539;48.160;11.530;2022-10-17T12:24:34;96576.81;;;26.12;47.79
55149;BME280;49539;48.160;11.530;2022-10-17T12:29:44;96562.53;;;27.71;42.01
55149;BME280;49539;48.160;11.530;2022-10-17T12:32:10;96564.38;;;28.29;40.41
55149;BME280;49539;48.160;11.530;2022-10-17T12:34:36;96563.94;;;28.74;42.41
55149;BME280;49539;48.160;11.530;2022-10-17T12:37:02;96566.06;;;29.11;37.07
55149;BME280;49539;48.160;11.530;2022-10-17T12:41:52;96566.75;;;28.98;50.42
55149;BME280;49539;48.160;11.530;2022-10-17T12:54:43;96557.06;;;31.53;37.39
55149;BME280;49539;48.160;11.530;2022-10-17T13:00:16;96564.81;;;30.46;32.28
55149;BME280;49539;48.160;11.530;2022-10-17T13:02:42;96563.31;;;30.85;34.45
55149;BME280;49539;48.160;11.530;2022-10-17T13:05:30;96565.66;;;31.21;33.84
55149;BME280;49539;48.160;11.530;2022-10-17T13:07:54;96563.25;;;29.11;35.02
55149;BME280;49539;48.160;11.530;2022-10-17T13:10:25;96566.81;;;27.83;42.66
55149;BME280;49539;48.160;11.530;2022-10-17T13:12:52;96558.03;;;27.57;42.51
55149;BME280;49539;48.160;11.530;2022-10-17T13:15:18;96560.19;;;27.81;43.74
55149;BME280;49539;48.160;11.530;2022-10-17T13:17:44;96559.06;;;27.07;45.38
55149;BME280;49539;48.160;11.530;2022-10-17T13:20:17;96555.94;;;27.33;44.03
55149;BME280;49539;48.160;11.530;2022-10-17T13:22:43;96555.66;;;27.31;48.57
55149;BME280;49539;48.160;11.530;2022-10-17T13:25:18;96551.84;;;27.34;41.49
55149;BME280;49539;48.160;11.530;2022-10-17T13:27:44;96559.66;;;27.46;42.28
55149;BME280;49539;48.160;11.530;2022-10-17T13:30:26;96564.44;;;27.52;41.24
55149;BME280;49539;48.160;11.530;2022-10-17T13:32:52;96573.16;;;26.73;41.11
55149;BME280;49539;48.160;11.530;2022-10-17T13:35:22;96573.91;;;26.85;39.13
55149;BME280;49539;48.160;11.530;2022-10-17T13:37:48;96564.88;;;26.11;42.59
55149;BME280;49539;48.160;11.530;2022-10-17T13:40:15;96574.47;;;25.54;59.26
55149;BME280;49539;48.160;11.530;2022-10-17T13:42:41;96568.72;;;24.98;64.71
55149;BME280;49539;48.160;11.530;2022-10-17T13:45:13;96572.03;;;25.02;66.71
55149;BME280;49539;48.160;11.530;2022-10-17T13:47:40;96574.72;;;25.45;63.40
55149;BME280;49539;48.160;11.530;2022-10-17T13:50:06;96571.41;;;25.35;62.63
55149;BME280;49539;48.160;11.530;2022-10-17T13:52:32;96569.63;;;25.38;56.51
55149;BME280;49539;48.160;11.530;2022-10-17T13:55:07;96564.56;;;25.36;61.41
55149;BME280;49539;48.160;11.530;2022-10-17T13:57:33;96565.53;;;25.28;59.49
55149;BME280;49539;48.160;11.530;2022-10-17T14:00:04;96565.03;;;25.23;50.92
55149;BME280;49539;48.160;11.530;2022-10-17T14:02:31;96560.50;;;25.32;49.33
55149;BME280;49539;48.160;11.530;2022-10-17T14:05:03;96573.88;;;25.16;48.14
55149;BME280;49539;48.160;11.530;2022-10-17T14:07:45;96566.66;;;25.86;44.39
55149;BME280;49539;48.160;11.530;2022-10-17T14:10:24;96566.53;;;26.82;42.32
55149;BME280;49539;48.160;11.530;2022-10-17T14:12:50;96563.50;;;27.38;40.03
55149;BME280;49539;48.160;11.530;2022-10-17T14:15:16;96570.50;;;27.09;41.71
55149;BME280;49539;48.160;11.530;2022-10-17T14:17:42;96570.69;;;26.24;48.11
55149;BME280;49539;48.160;11.530;2022-10-17T14:20:16;96581.31;;;25.53;55.61
55149;BME280;49539;48.160;11.530;2022-10-17T14:22:41;96574.44;;;25.37;53.81
55149;BME280;49539;48.160;11.530;2022-10-17T14:27:52;96576.66;;;25.11;65.17
55149;BME280;49539;48.160;11.530;2022-10-17T14:32:50;96583.06;;;25.39;67.80
55149;BME280;49539;48.160;11.530;2022-10-17T14:35:19;96582.31;;;24.85;67.13
55149;BME280;49539;48.160;11.530;2022-10-17T14:37:45;96581.41;;;24.56;55.50